createdAt,value
2023-06-10T00:00:07.137Z,12.50
2023-06-10T00:02:40.649Z,15.30
2023-06-10T00:05:10.082Z,12.90
2023-06-10T00:07:42.514Z,12.00
2023-06-10T00:10:12.062Z,13.80
2023-06-10T00:12:39.785Z,13.70
2023-06-10T00:15:07.927Z,12.80
2023-06-10T00:17:35.819Z,14.50
2023-06-10T00:20:10.316Z,11.30
2023-06-10T00:22:38.752Z,9.60
2023-06-10T00:25:07.487Z,12.10
2023-06-10T00:27:36.510Z,11.10
2023-06-10T00:30:05.639Z,11.80
2023-06-10T00:32:33.162Z,8.60
2023-06-10T00:35:00.619Z,12.50
2023-06-10T00:37:29.961Z,14.80
2023-06-10T00:39:57.460Z,11.00
2023-06-10T00:42:25.522Z,11.10
2023-06-10T00:44:53.114Z,16.00
2023-06-10T00:47:20.734Z,13.80
2023-06-10T00:49:48.717Z,17.00
2023-06-10T00:52:17.136Z,11.30
2023-06-10T00:54:44.885Z,11.50
2023-06-10T00:57:12.304Z,12.00
2023-06-10T00:59:40.844Z,11.40
2023-06-10T01:02:08.737Z,12.10
2023-06-10T01:04:36.246Z,11.70
2023-06-10T01:07:06.905Z,12.80
2023-06-10T01:09:37.443Z,18.20
2023-06-10T01:12:11.039Z,11.10
2023-06-10T01:14:39.686Z,11.30
2023-06-10T01:17:08.066Z,12.40
2023-06-10T01:19:37.760Z,13.90
2023-06-10T01:22:05.913Z,15.40
2023-06-10T01:24:35.404Z,11.40
2023-06-10T01:27:03.100Z,17.80
2023-06-10T01:29:39.030Z,18.90
2023-06-10T01:32:12.056Z,21.70
2023-06-10T01:34:39.498Z,20.00
2023-06-10T01:37:07.092Z,22.30
2023-06-10T01:39:34.752Z,21.50
2023-06-10T01:42:03.729Z,18.30
2023-06-10T01:44:31.501Z,20.90
2023-06-10T01:46:59.026Z,18.00
2023-06-10T01:49:27.678Z,19.00
2023-06-10T01:51:55.347Z,15.10
2023-06-10T01:54:22.842Z,18.20
2023-06-10T01:56:50.328Z,17.60
2023-06-10T01:59:17.811Z,19.00
2023-06-10T02:01:45.630Z,19.10
2023-06-10T02:04:13.119Z,18.40
2023-06-10T02:06:40.559Z,17.60
2023-06-10T02:09:08.185Z,21.20
2023-06-10T02:11:35.671Z,22.70
2023-06-10T02:14:03.225Z,24.00
2023-06-10T02:16:32.515Z,21.10
2023-06-10T02:19:01.794Z,22.00
2023-06-10T02:21:29.256Z,21.20
2023-06-10T02:23:56.811Z,30.60
2023-06-10T02:26:27.240Z,22.50
2023-06-10T02:28:54.986Z,22.70
2023-06-10T02:31:22.659Z,22.10
2023-06-10T02:33:50.099Z,18.30
2023-06-10T02:36:17.823Z,15.70
2023-06-10T02:38:45.462Z,16.90
2023-06-10T02:41:13.072Z,18.80
2023-06-10T02:43:41.741Z,16.80
2023-06-10T02:46:09.450Z,21.10
2023-06-10T02:48:45.024Z,19.40
2023-06-10T02:51:13.353Z,20.80
2023-06-10T02:53:44.144Z,26.20
2023-06-10T02:56:13.769Z,17.00
2023-06-10T02:58:41.291Z,18.10
2023-06-10T03:01:10.631Z,18.90
2023-06-10T03:03:47.790Z,24.90
2023-06-10T03:06:16.091Z,24.80
2023-06-10T03:08:43.953Z,19.10
2023-06-10T03:11:14.610Z,17.70
2023-06-10T03:13:42.304Z,23.80
2023-06-10T03:16:13.541Z,24.50
2023-06-10T03:18:42.347Z,24.30
2023-06-10T03:21:10.083Z,26.50
2023-06-10T03:23:37.669Z,28.10
2023-06-10T03:26:06.121Z,28.40
2023-06-10T03:28:34.125Z,22.40
2023-06-10T03:31:01.803Z,26.30
2023-06-10T03:33:31.302Z,16.00
2023-06-10T03:35:58.947Z,16.30
2023-06-10T03:38:27.009Z,12.90
2023-06-10T03:40:54.549Z,11.90
2023-06-10T03:43:22.749Z,13.40
2023-06-10T03:45:50.992Z,13.30
2023-06-10T03:48:18.879Z,10.40
2023-06-10T03:50:53.920Z,13.20
2023-06-10T03:53:22.236Z,11.40
2023-06-10T03:55:49.943Z,11.10
2023-06-10T03:58:19.344Z,11.50
2023-06-10T04:00:47.098Z,13.00
2023-06-10T04:03:16.097Z,14.80
2023-06-10T04:05:48.948Z,10.50
2023-06-10T04:08:16.506Z,15.50
2023-06-10T04:10:44.061Z,10.40
2023-06-10T04:13:12.001Z,14.00
2023-06-10T04:15:45.145Z,12.90
2023-06-10T04:18:15.072Z,13.70
2023-06-10T04:20:42.829Z,14.10
2023-06-10T04:23:10.314Z,13.60
2023-06-10T04:25:37.988Z,14.70
2023-06-10T04:28:06.111Z,14.50
2023-06-10T04:30:33.641Z,14.90
2023-06-10T04:33:01.897Z,15.10
2023-06-10T04:35:29.802Z,19.50
2023-06-10T04:37:59.130Z,17.50
2023-06-10T04:40:27.853Z,17.20
2023-06-10T04:42:55.522Z,21.30
2023-06-10T04:45:23.415Z,18.50
2023-06-10T04:47:51.656Z,18.30
2023-06-10T04:50:19.282Z,15.10
2023-06-10T04:52:46.718Z,22.60
2023-06-10T04:55:14.764Z,21.70
2023-06-10T04:57:42.206Z,18.10
2023-06-10T05:00:09.952Z,16.40
2023-06-10T05:02:37.652Z,20.70
2023-06-10T05:05:05.306Z,23.30
2023-06-10T05:07:32.827Z,19.50
2023-06-10T05:10:00.451Z,21.70
2023-06-10T05:12:27.990Z,18.10
2023-06-10T05:14:55.701Z,19.10
2023-06-10T05:17:24.265Z,27.90
2023-06-10T05:19:51.746Z,19.00
2023-06-10T05:22:19.518Z,22.50
2023-06-10T05:24:47.168Z,17.50
2023-06-10T05:27:14.751Z,17.20
2023-06-10T05:29:42.188Z,14.50
2023-06-10T05:32:10.041Z,19.80
2023-06-10T05:35:50.681Z,14.50
2023-06-10T05:38:18.215Z,15.80
2023-06-10T05:40:45.764Z,15.80
2023-06-10T05:43:13.226Z,14.50
2023-06-10T05:45:41.706Z,13.60
2023-06-10T05:48:09.268Z,14.60
2023-06-10T05:50:40.039Z,12.70
2023-06-10T05:53:09.474Z,12.30
2023-06-10T05:55:37.358Z,12.90
2023-06-10T05:58:07.345Z,20.10
2023-06-10T06:00:37.378Z,20.00
2023-06-10T06:03:07.548Z,18.30
2023-06-10T06:05:36.760Z,19.00
2023-06-10T06:08:04.895Z,22.30
2023-06-10T06:10:32.360Z,18.20
2023-06-10T06:12:59.876Z,17.50
2023-06-10T06:15:27.505Z,14.80
2023-06-10T06:17:55.048Z,12.90
2023-06-10T06:20:22.698Z,12.20
2023-06-10T06:22:50.159Z,14.30
2023-06-10T06:25:17.768Z,12.00
2023-06-10T06:27:45.503Z,14.20
2023-06-10T06:30:13.042Z,14.80
2023-06-10T06:32:40.654Z,11.50
2023-06-10T06:35:09.508Z,10.00
2023-06-10T06:37:37.302Z,9.50
2023-06-10T06:40:25.857Z,8.20
2023-06-10T06:42:53.306Z,9.50
2023-06-10T06:45:35.211Z,6.50
2023-06-10T06:48:02.798Z,6.90
2023-06-10T06:50:30.526Z,7.40
2023-06-10T06:52:58.069Z,10.00
2023-06-10T06:55:25.643Z,8.20
2023-06-10T06:57:53.094Z,12.00
2023-06-10T07:00:20.800Z,7.70
2023-06-10T07:02:48.399Z,8.20
2023-06-10T07:05:15.896Z,8.20
2023-06-10T07:07:43.690Z,6.70
2023-06-10T07:10:11.421Z,9.70
2023-06-10T07:12:38.945Z,5.50
2023-06-10T07:15:06.850Z,7.60
2023-06-10T07:17:36.070Z,8.50
2023-06-10T07:20:03.779Z,7.10
2023-06-10T07:22:31.303Z,8.00
2023-06-10T07:24:59.050Z,9.20
2023-06-10T07:27:26.600Z,7.20
2023-06-10T07:29:54.198Z,7.00
2023-06-10T07:32:23.518Z,6.00
2023-06-10T07:34:51.740Z,7.10
2023-06-10T07:37:20.935Z,7.90
2023-06-10T07:39:48.482Z,6.30
2023-06-10T07:42:16.188Z,8.60
2023-06-10T07:44:43.783Z,7.20
2023-06-10T07:47:11.262Z,9.20
2023-06-10T07:49:38.755Z,7.30
2023-06-10T07:52:06.722Z,10.30
2023-06-10T07:54:34.216Z,8.50
2023-06-10T07:57:01.703Z,6.40
2023-06-10T07:59:29.463Z,6.30
2023-06-10T08:01:56.953Z,5.30
2023-06-10T08:04:24.668Z,8.10
2023-06-10T08:06:52.397Z,8.50
2023-06-10T08:09:19.996Z,6.40
2023-06-10T08:11:47.812Z,6.90
2023-06-10T08:14:15.361Z,8.30
2023-06-10T08:16:42.955Z,4.50
2023-06-10T08:19:10.744Z,7.50
2023-06-10T08:21:40.822Z,6.30
2023-06-10T08:24:08.666Z,5.80
2023-06-10T08:26:36.297Z,5.10
2023-06-10T08:29:03.853Z,8.10
2023-06-10T08:31:31.402Z,6.40
2023-06-10T08:33:58.925Z,5.90
2023-06-10T08:36:26.596Z,7.20
2023-06-10T08:38:54.563Z,10.90
2023-06-10T08:41:22.746Z,9.10
2023-06-10T08:43:54.715Z,8.70
2023-06-10T08:46:22.183Z,7.20
2023-06-10T08:48:50.321Z,10.40
2023-06-10T08:51:17.920Z,6.40
2023-06-10T08:53:49.736Z,6.80
2023-06-10T08:56:17.253Z,9.50
2023-06-10T08:58:44.905Z,7.90
2023-06-10T09:01:12.658Z,5.50
2023-06-10T09:03:40.313Z,7.90
2023-06-10T09:06:07.915Z,5.90
2023-06-10T09:08:36.422Z,4.90
2023-06-10T09:11:04.153Z,6.60
2023-06-10T09:13:31.777Z,7.00
2023-06-10T09:16:02.382Z,10.20
2023-06-10T09:18:30.448Z,5.80
2023-06-10T09:20:57.962Z,7.70
2023-06-10T09:23:25.570Z,5.30
2023-06-10T09:25:59.301Z,4.50
2023-06-10T09:28:26.830Z,5.50
2023-06-10T09:31:08.405Z,8.40
2023-06-10T09:33:40.677Z,8.10
2023-06-10T09:36:08.188Z,7.50
2023-06-10T09:38:35.874Z,6.80
2023-06-10T09:41:03.980Z,7.00
2023-06-10T09:43:41.564Z,9.80
2023-06-10T09:46:16.128Z,7.50
2023-06-10T09:48:45.041Z,7.70
2023-06-10T09:51:13.250Z,4.50
2023-06-10T09:53:40.977Z,7.30
2023-06-10T09:56:10.692Z,5.90
2023-06-10T09:58:39.047Z,9.60
2023-06-10T10:01:07.609Z,6.00
2023-06-10T10:03:35.143Z,7.00
2023-06-10T10:06:02.840Z,5.70
2023-06-10T10:08:30.636Z,5.90
2023-06-10T10:11:00.762Z,3.30
2023-06-10T10:13:28.477Z,5.60
2023-06-10T10:15:57.655Z,5.70
2023-06-10T10:18:30.142Z,3.10
2023-06-10T10:20:58.312Z,4.80
2023-06-10T10:23:26.509Z,4.60
2023-06-10T10:25:55.137Z,8.70
2023-06-10T10:28:23.273Z,4.50
2023-06-10T10:30:51.545Z,41.40
2023-06-10T10:33:42.861Z,5.20
2023-06-10T10:38:40.202Z,4.70
2023-06-10T10:41:07.730Z,5.50
2023-06-10T10:43:35.278Z,15.50
2023-06-10T10:46:02.932Z,7.40
2023-06-10T10:48:38.357Z,5.50
2023-06-10T10:51:05.802Z,7.10
2023-06-10T10:53:33.346Z,8.00
2023-06-10T10:56:01.496Z,6.40
2023-06-10T10:58:29.029Z,7.20
2023-06-10T11:00:56.598Z,7.80
2023-06-10T11:03:24.460Z,6.30
2023-06-10T11:05:52.351Z,6.80
2023-06-10T11:08:32.002Z,5.60
2023-06-10T11:11:00.025Z,7.50
2023-06-10T11:13:27.843Z,7.70
2023-06-10T11:15:58.268Z,5.90
2023-06-10T11:18:34.288Z,5.10
2023-06-10T11:21:02.409Z,5.50
2023-06-10T11:23:30.120Z,4.20
2023-06-10T11:26:16.636Z,4.00
2023-06-10T11:28:47.161Z,6.60
2023-06-10T11:31:22.011Z,4.40
2023-06-10T11:33:49.951Z,5.80
2023-06-10T11:36:17.549Z,5.70
2023-06-10T11:38:45.096Z,6.20
2023-06-10T11:41:12.871Z,6.80
2023-06-10T11:43:46.606Z,5.00
2023-06-10T11:46:14.819Z,4.80
2023-06-10T11:48:51.684Z,5.80
2023-06-10T11:51:19.283Z,3.90
2023-06-10T11:53:47.167Z,5.90
2023-06-10T11:56:14.686Z,5.10
2023-06-10T11:58:43.662Z,5.60
2023-06-10T12:01:12.901Z,4.10
2023-06-10T12:03:41.166Z,7.80
2023-06-10T12:06:08.785Z,8.60
2023-06-10T12:08:37.229Z,5.30
2023-06-10T12:11:04.908Z,7.40
2023-06-10T12:13:32.445Z,3.90
2023-06-10T12:16:10.098Z,4.70
2023-06-10T12:18:37.695Z,5.30
2023-06-10T12:21:05.158Z,5.70
2023-06-10T12:23:33.404Z,5.40
2023-06-10T12:26:01.017Z,6.30
2023-06-10T12:28:28.481Z,7.80
2023-06-10T12:31:11.280Z,7.40
2023-06-10T12:33:39.286Z,7.00
2023-06-10T12:36:06.880Z,6.50
2023-06-10T12:38:34.985Z,9.20
2023-06-10T12:41:02.673Z,10.50
2023-06-10T12:43:30.203Z,11.80
2023-06-10T12:45:57.802Z,7.40
2023-06-10T12:48:27.197Z,6.20
2023-06-10T12:50:56.773Z,7.10
2023-06-10T12:53:24.419Z,6.80
2023-06-10T12:55:52.556Z,4.90
2023-06-10T12:58:23.329Z,4.90
2023-06-10T13:00:53.916Z,7.40
2023-06-10T13:03:21.996Z,7.50
2023-06-10T13:05:49.724Z,4.90
2023-06-10T13:08:17.288Z,8.40
2023-06-10T13:10:44.761Z,13.70
2023-06-10T13:13:12.215Z,8.80
2023-06-10T13:15:43.652Z,9.90
2023-06-10T13:18:12.130Z,9.40
2023-06-10T13:20:40.199Z,8.80
2023-06-10T13:23:07.669Z,6.50
2023-06-10T13:25:35.138Z,5.80
2023-06-10T13:28:02.837Z,5.20
2023-06-10T13:30:30.362Z,10.60
2023-06-10T13:32:57.932Z,6.20
2023-06-10T13:35:27.430Z,7.50
2023-06-10T13:37:54.879Z,6.80
2023-06-10T13:40:23.376Z,8.60
2023-06-10T13:42:52.301Z,5.90
2023-06-10T13:45:19.857Z,7.70
2023-06-10T13:47:47.392Z,6.10
2023-06-10T13:50:15.292Z,5.30
2023-06-10T13:52:42.869Z,7.00
2023-06-10T13:55:10.886Z,8.40
2023-06-10T13:57:38.781Z,6.80
2023-06-10T14:00:06.970Z,5.80
2023-06-10T14:02:34.519Z,7.10
2023-06-10T14:05:02.901Z,11.10
2023-06-10T14:07:30.474Z,5.10
2023-06-10T14:09:58.024Z,6.80
2023-06-10T14:12:26.042Z,7.40
2023-06-10T14:14:53.535Z,7.80
2023-06-10T14:17:21.003Z,6.70
2023-06-10T14:19:48.565Z,5.20
2023-06-10T14:22:16.065Z,8.50
2023-06-10T14:24:43.698Z,9.50
2023-06-10T14:27:11.245Z,7.70
2023-06-10T14:29:38.765Z,7.40
2023-06-10T14:32:09.349Z,9.00
2023-06-10T14:34:37.478Z,6.90
2023-06-10T14:37:08.423Z,6.50
2023-06-10T14:39:36.504Z,7.00
2023-06-10T14:42:04.290Z,6.90
2023-06-10T14:44:32.569Z,6.50
2023-06-10T14:47:00.241Z,5.80
2023-06-10T14:49:27.832Z,5.30
2023-06-10T14:51:55.410Z,8.70
2023-06-10T14:54:23.000Z,8.20
2023-06-10T14:56:50.577Z,6.60
2023-06-10T14:59:18.098Z,9.00
2023-06-10T15:01:45.668Z,5.60
2023-06-10T15:04:13.374Z,5.80
2023-06-10T15:06:40.998Z,7.70
2023-06-10T15:09:08.524Z,5.80
2023-06-10T15:11:36.210Z,6.20
2023-06-10T15:14:03.675Z,6.90
2023-06-10T15:16:31.354Z,6.40
2023-06-10T15:18:59.132Z,5.30
2023-06-10T15:21:26.865Z,6.50
2023-06-10T15:23:54.487Z,7.30
2023-06-10T15:26:22.408Z,6.50
2023-06-10T15:28:49.858Z,8.30
2023-06-10T15:31:17.355Z,6.70
2023-06-10T15:33:47.595Z,8.30
2023-06-10T15:36:15.993Z,5.30
2023-06-10T15:38:43.422Z,5.80
2023-06-10T15:41:11.041Z,7.50
2023-06-10T15:43:38.543Z,7.50
2023-06-10T15:46:06.214Z,7.70
2023-06-10T15:48:33.877Z,7.20
2023-06-10T15:51:01.597Z,6.20
2023-06-10T15:53:29.090Z,6.60
2023-06-10T15:55:56.822Z,10.50
2023-06-10T15:58:24.299Z,7.60
2023-06-10T16:00:52.092Z,11.00
2023-06-10T16:03:19.955Z,6.00
2023-06-10T16:05:47.579Z,6.10
2023-06-10T16:08:15.362Z,7.90
2023-06-10T16:10:42.896Z,8.80
2023-06-10T16:13:10.489Z,8.30
2023-06-10T16:15:38.018Z,9.00
2023-06-10T16:18:05.617Z,7.00
2023-06-10T16:20:36.066Z,7.30
2023-06-10T16:23:06.712Z,5.10
2023-06-10T16:25:35.429Z,6.10
2023-06-10T16:28:06.095Z,4.80
2023-06-10T16:30:34.042Z,9.80
2023-06-10T16:33:01.852Z,7.20
2023-06-10T16:35:29.323Z,7.60
2023-06-10T16:37:56.929Z,8.20
2023-06-10T16:40:24.395Z,8.40
2023-06-10T16:42:51.862Z,6.00
2023-06-10T16:45:19.367Z,7.40
2023-06-10T16:47:46.944Z,11.50
2023-06-10T16:50:14.561Z,5.60
2023-06-10T16:52:42.230Z,6.80
2023-06-10T16:55:09.988Z,10.00
2023-06-10T16:57:37.752Z,6.60
2023-06-10T17:00:05.741Z,4.90
2023-06-10T17:02:33.380Z,7.20
2023-06-10T17:05:01.207Z,9.00
2023-06-10T17:07:29.006Z,9.50
2023-06-10T17:09:56.769Z,6.80
2023-06-10T17:12:24.206Z,8.80
2023-06-10T17:14:51.764Z,9.10
2023-06-10T17:17:19.275Z,8.30
2023-06-10T17:19:49.441Z,6.20
2023-06-10T17:22:19.984Z,5.20
2023-06-10T17:24:47.479Z,6.90
2023-06-10T17:27:14.978Z,7.30
2023-06-10T17:29:42.569Z,4.80
2023-06-10T17:32:10.630Z,10.40
2023-06-10T17:34:38.132Z,5.50
2023-06-10T17:37:05.671Z,6.70
2023-06-10T17:39:33.124Z,8.60
2023-06-10T17:42:00.595Z,8.30
2023-06-10T17:44:29.714Z,5.40
2023-06-10T17:46:57.275Z,7.90
2023-06-10T17:49:31.734Z,5.90
2023-06-10T17:53:32.524Z,7.20
2023-06-10T17:56:02.047Z,6.60
2023-06-10T17:58:30.064Z,4.60
2023-06-10T18:00:58.864Z,5.00
2023-06-10T18:03:27.861Z,5.00
2023-06-10T18:05:56.219Z,5.20
2023-06-10T18:08:23.808Z,5.10
2023-06-10T18:10:51.355Z,4.30
2023-06-10T18:13:18.822Z,5.10
2023-06-10T18:15:46.424Z,5.60
2023-06-10T18:18:14.017Z,8.50
2023-06-10T18:20:41.574Z,6.50
2023-06-10T18:23:09.144Z,8.00
2023-06-10T18:25:36.654Z,12.00
2023-06-10T18:28:04.248Z,11.20
2023-06-10T18:30:32.301Z,11.80
2023-06-10T18:32:59.867Z,11.50
2023-06-10T18:35:27.432Z,8.70
2023-06-10T18:37:55.003Z,13.30
2023-06-10T18:40:22.461Z,12.40
2023-06-10T18:42:50.002Z,16.20
2023-06-10T18:45:17.689Z,11.20
2023-06-10T18:47:57.462Z,12.00
2023-06-10T18:50:26.107Z,14.40
2023-06-10T18:52:53.733Z,14.30
2023-06-10T18:55:21.261Z,23.10
2023-06-10T18:57:48.878Z,18.80
2023-06-10T19:00:16.607Z,19.20
2023-06-10T19:02:44.178Z,17.50
2023-06-10T19:05:13.989Z,17.30
2023-06-10T19:07:41.668Z,13.10
2023-06-10T19:10:09.404Z,16.40
2023-06-10T19:12:36.936Z,16.40
2023-06-10T19:15:04.609Z,13.50
2023-06-10T19:17:32.206Z,17.90
2023-06-10T19:19:59.934Z,21.20
2023-06-10T19:22:27.442Z,16.50
2023-06-10T19:25:04.954Z,17.90
2023-06-10T19:27:33.110Z,12.70
2023-06-10T19:30:01.087Z,14.30
2023-06-10T19:32:28.710Z,16.90
2023-06-10T19:34:56.310Z,12.20
2023-06-10T19:37:23.781Z,12.00
2023-06-10T19:39:51.326Z,14.60
2023-06-10T19:42:18.954Z,19.50
2023-06-10T19:44:46.432Z,16.90
2023-06-10T19:47:14.064Z,20.30
2023-06-10T19:49:41.629Z,19.80
2023-06-10T19:52:09.382Z,16.70
2023-06-10T19:54:37.074Z,16.50
2023-06-10T19:57:04.740Z,23.80
2023-06-10T19:59:32.878Z,15.70
2023-06-10T20:02:00.654Z,20.00
2023-06-10T20:04:28.308Z,16.10
2023-06-10T20:06:55.869Z,16.70
2023-06-10T20:09:23.430Z,17.80
2023-06-10T20:11:51.106Z,16.20
2023-06-10T20:14:18.615Z,18.60
2023-06-10T20:16:46.600Z,15.60
2023-06-10T20:19:14.130Z,14.50
2023-06-10T20:21:41.552Z,14.00
2023-06-10T20:24:09.608Z,16.50
2023-06-10T20:26:37.293Z,13.90
2023-06-10T20:29:04.839Z,12.40
2023-06-10T20:31:32.505Z,17.20
2023-06-10T20:34:00.168Z,16.10
2023-06-10T20:36:29.624Z,17.20
2023-06-10T20:38:58.503Z,16.50
2023-06-10T20:41:27.341Z,16.40
2023-06-10T20:43:54.843Z,16.00
2023-06-10T20:46:22.460Z,13.80
2023-06-10T20:48:49.888Z,20.40
2023-06-10T20:51:17.313Z,18.60
2023-06-10T20:53:44.825Z,17.30
2023-06-10T20:56:12.248Z,13.20
2023-06-10T20:58:41.486Z,12.30
2023-06-10T21:01:11.943Z,14.10
2023-06-10T21:03:39.512Z,12.00
2023-06-10T21:06:07.242Z,10.80
2023-06-10T21:08:34.751Z,10.50
2023-06-10T21:11:02.204Z,15.60
2023-06-10T21:13:29.710Z,11.80
2023-06-10T21:15:57.289Z,15.10
2023-06-10T21:18:24.784Z,14.40
2023-06-10T21:20:52.190Z,10.50
2023-06-10T21:23:19.774Z,12.50
2023-06-10T21:25:47.207Z,20.00
2023-06-10T21:28:15.781Z,13.90
2023-06-10T21:30:43.513Z,12.60
2023-06-10T21:33:11.046Z,11.20
2023-06-10T21:35:38.560Z,15.20
2023-06-10T21:38:06.398Z,14.30
2023-06-10T21:40:33.852Z,11.50
2023-06-10T21:43:01.336Z,10.80
2023-06-10T21:45:28.826Z,11.80
2023-06-10T21:47:56.289Z,17.30
2023-06-10T21:50:23.800Z,11.30
2023-06-10T21:52:51.451Z,10.70
2023-06-10T21:55:19.122Z,10.40
2023-06-10T21:57:47.004Z,14.80
2023-06-10T22:00:14.969Z,11.60
2023-06-10T22:02:42.778Z,12.40
2023-06-10T22:05:10.526Z,12.50
2023-06-10T22:07:38.179Z,14.60
2023-06-10T22:10:05.880Z,9.00
2023-06-10T22:12:33.358Z,10.30
2023-06-10T22:15:00.850Z,12.50
2023-06-10T22:17:28.340Z,11.10
2023-06-10T22:19:55.863Z,13.40
2023-06-10T22:22:23.470Z,16.50
2023-06-10T22:24:57.070Z,18.50
2023-06-10T22:27:24.672Z,16.30
2023-06-10T22:29:52.215Z,10.50
2023-06-10T22:32:19.645Z,13.40
2023-06-10T22:34:47.329Z,12.10
2023-06-10T22:37:14.734Z,11.90
2023-06-10T22:39:42.189Z,10.80
2023-06-10T22:42:10.855Z,12.10
2023-06-10T22:44:38.369Z,13.90
2023-06-10T22:47:06.042Z,11.80
2023-06-10T22:49:33.546Z,13.10
2023-06-10T22:52:01.139Z,13.20
2023-06-10T22:54:28.740Z,13.30
2023-06-10T22:56:56.328Z,9.50
2023-06-10T22:59:23.813Z,14.50
2023-06-10T23:01:51.312Z,11.30
2023-06-10T23:04:19.005Z,13.90
2023-06-10T23:06:46.626Z,9.80
2023-06-10T23:09:14.524Z,10.50
2023-06-10T23:11:42.660Z,10.20
2023-06-10T23:14:10.616Z,14.50
2023-06-10T23:16:47.599Z,10.70
2023-06-10T23:19:19.390Z,10.70
2023-06-10T23:21:54.663Z,8.80
2023-06-10T23:24:31.800Z,11.80
2023-06-10T23:26:59.935Z,11.00
2023-06-10T23:29:27.620Z,12.30
2023-06-10T23:31:55.286Z,12.30
2023-06-10T23:34:22.966Z,10.10
2023-06-10T23:36:50.401Z,9.70
2023-06-10T23:39:17.870Z,12.60
2023-06-10T23:41:45.502Z,10.30
2023-06-10T23:44:13.233Z,10.30
2023-06-10T23:46:40.809Z,15.60
2023-06-10T23:49:10.356Z,16.70
2023-06-10T23:51:38.565Z,19.40
2023-06-10T23:54:06.806Z,21.50
2023-06-10T23:56:34.325Z,17.40
2023-06-10T23:59:02.287Z,12.60
